createdAt,value
2018-03-25T00:02:17.067Z,21.63
2018-03-25T00:04:49.228Z,23.23
2018-03-25T00:07:21.103Z,22.70
2018-03-25T00:09:53.011Z,21.70
2018-03-25T00:12:24.892Z,20.77
2018-03-25T00:14:57.585Z,22.37
2018-03-25T00:17:30.224Z,24.73
2018-03-25T00:20:02.116Z,21.10
2018-03-25T00:22:34.755Z,23.80
2018-03-25T00:25:06.872Z,21.67
2018-03-25T00:27:38.763Z,23.67
2018-03-25T00:30:10.648Z,21.27
2018-03-25T07:02:04.543Z,17.53
2018-03-25T07:04:37.215Z,17.40
2018-03-25T07:07:09.853Z,18.23
2018-03-25T07:09:41.765Z,16.83
2018-03-25T07:12:13.635Z,18.73
2018-03-25T07:14:45.527Z,15.80
2018-03-25T07:17:17.408Z,16.77
2018-03-25T07:19:49.305Z,16.77
2018-03-25T07:22:21.223Z,16.70
2018-03-25T07:24:53.107Z,17.00
2018-03-25T07:27:25.988Z,17.13
2018-03-25T07:29:58.640Z,18.47
2018-03-25T07:32:30.531Z,18.63
2018-03-25T07:35:03.184Z,19.00
2018-03-25T07:37:35.082Z,16.17
2018-03-25T07:40:07.736Z,17.33
2018-03-25T07:42:39.614Z,16.70
2018-03-25T07:45:12.267Z,17.97
2018-03-25T07:47:44.148Z,18.10
2018-03-25T07:50:16.802Z,20.63
2018-03-25T07:52:48.912Z,17.03
2018-03-25T07:55:20.849Z,15.73
2018-03-25T07:57:52.722Z,18.40
2018-03-25T08:00:25.376Z,17.00
2018-03-25T08:02:57.578Z,16.87
2018-03-25T08:05:29.464Z,16.57
2018-03-25T08:08:01.603Z,17.83
2018-03-25T08:10:33.512Z,15.97
2018-03-25T08:13:05.634Z,19.33
2018-03-25T08:15:37.528Z,20.03
2018-03-25T08:18:09.455Z,19.00
2018-03-25T08:20:41.366Z,21.03
2018-03-25T08:23:13.481Z,19.97
2018-03-25T08:25:45.437Z,18.33
2018-03-25T08:28:18.072Z,21.17
2018-03-25T08:30:50.283Z,21.27
2018-03-25T08:33:22.451Z,19.60
2018-03-25T08:35:54.335Z,20.57
2018-03-25T08:38:26.209Z,22.17
2018-03-25T08:40:58.096Z,22.40
2018-03-25T08:43:29.983Z,20.20
2018-03-25T08:46:02.639Z,24.33
2018-03-25T08:48:34.521Z,22.33
2018-03-25T08:51:07.180Z,22.47
2018-03-25T08:53:39.047Z,20.90
2018-03-25T08:56:11.712Z,25.20
2018-03-25T08:58:43.584Z,22.33
2018-03-25T09:01:16.239Z,23.97
2018-03-25T09:03:48.107Z,25.10
2018-03-25T09:06:20.043Z,24.33
2018-03-25T09:08:51.923Z,21.90
2018-03-25T09:11:24.028Z,20.63
2018-03-25T09:13:55.900Z,23.57
2018-03-25T09:16:27.791Z,23.33
2018-03-25T09:18:59.675Z,21.77
2018-03-25T09:21:31.670Z,22.10
2018-03-25T09:24:04.307Z,23.27
2018-03-25T09:26:36.208Z,24.50
2018-03-25T09:29:08.080Z,24.00
2018-03-25T09:31:39.966Z,23.60
2018-03-25T09:34:11.948Z,25.80
2018-03-25T09:36:43.835Z,24.73
2018-03-25T09:39:16.475Z,24.47
2018-03-25T09:41:48.371Z,25.60
2018-03-25T09:44:21.011Z,22.10
2018-03-25T09:46:52.906Z,25.33
2018-03-25T09:49:25.554Z,27.00
2018-03-25T09:51:57.443Z,27.70
2018-03-25T09:54:30.091Z,25.77
2018-03-25T09:57:02.020Z,25.17
2018-03-25T09:59:33.887Z,24.80
2018-03-25T10:02:05.776Z,26.00
2018-03-25T10:04:37.657Z,26.17
2018-03-25T10:07:09.548Z,26.03
2018-03-25T10:09:41.420Z,26.33
2018-03-25T10:12:13.323Z,30.70
2018-03-25T10:14:45.195Z,24.90
2018-03-25T10:17:17.092Z,31.53
2018-03-25T10:19:48.983Z,31.60
2018-03-25T10:22:20.872Z,28.33
2018-03-25T10:24:52.747Z,27.00
2018-03-25T10:27:25.404Z,29.60
2018-03-25T10:29:57.276Z,27.03
2018-03-25T10:32:29.167Z,23.00
2018-03-25T10:35:01.043Z,25.70
2018-03-25T10:37:32.934Z,25.27
2018-03-25T10:40:04.807Z,24.23
2018-03-25T10:42:36.918Z,24.17
2018-03-25T10:45:08.791Z,26.73
2018-03-25T10:47:40.684Z,25.20
2018-03-25T10:50:12.799Z,24.30
2018-03-25T10:52:44.968Z,24.67
2018-03-25T10:55:16.843Z,22.63
2018-03-25T10:57:48.729Z,23.67
2018-03-25T11:00:20.612Z,25.20
2018-03-25T11:02:52.500Z,24.37
2018-03-25T11:05:24.671Z,23.60
2018-03-25T11:07:56.574Z,20.63
2018-03-25T11:10:28.443Z,23.50
2018-03-25T11:13:00.330Z,25.20
2018-03-25T11:15:32.977Z,25.43
2018-03-25T11:18:04.898Z,23.10
2018-03-25T11:20:36.805Z,23.00
2018-03-25T11:23:08.695Z,24.87
2018-03-25T11:25:41.611Z,24.20
2018-03-25T11:28:13.505Z,22.57
2018-03-25T11:30:45.376Z,24.00
2018-03-25T11:33:17.272Z,20.70
2018-03-25T11:35:49.236Z,20.70
2018-03-25T11:38:21.898Z,23.10
2018-03-25T11:40:54.570Z,23.27
2018-03-25T11:43:27.247Z,21.83
2018-03-25T11:45:59.128Z,22.27
2018-03-25T11:48:31.789Z,21.77
2018-03-25T11:51:03.663Z,23.70
2018-03-25T11:53:36.336Z,22.47
2018-03-25T11:56:09.238Z,21.63
2018-03-25T11:58:41.412Z,24.17
2018-03-25T12:01:13.295Z,22.47
2018-03-25T12:03:45.185Z,20.33
2018-03-25T12:06:17.058Z,20.50
2018-03-25T12:08:49.748Z,22.77
2018-03-25T12:11:22.395Z,21.93
2018-03-25T12:13:54.706Z,22.23
2018-03-25T12:16:26.588Z,18.77
2018-03-25T12:18:58.526Z,21.93
2018-03-25T12:21:30.355Z,23.77
2018-03-25T12:24:02.240Z,23.20
2018-03-25T12:26:34.919Z,23.27
2018-03-25T12:29:07.571Z,23.03
2018-03-25T12:31:39.455Z,21.70
2018-03-25T12:34:12.137Z,20.93
2018-03-25T12:36:44.824Z,22.70
2018-03-25T12:39:16.703Z,22.50
2018-03-25T12:41:48.583Z,22.57
2018-03-25T12:44:20.480Z,22.37
2018-03-25T12:46:53.123Z,17.47
2018-03-25T12:49:25.011Z,22.73
2018-03-25T12:51:56.890Z,21.53
2018-03-25T12:54:29.544Z,21.00
2018-03-25T12:57:01.423Z,20.37
2018-03-25T12:59:34.075Z,20.80
2018-03-25T13:02:05.959Z,19.93
2018-03-25T13:04:38.869Z,19.80
2018-03-25T13:07:11.033Z,18.40
2018-03-25T13:09:42.919Z,17.37
2018-03-25T13:12:15.051Z,18.30
2018-03-25T13:14:46.951Z,20.87
2018-03-25T13:17:18.850Z,19.13
2018-03-25T13:19:50.736Z,20.13
2018-03-25T13:22:22.652Z,20.70
2018-03-25T13:24:54.535Z,18.50
2018-03-25T13:27:27.199Z,24.03
2018-03-25T13:29:59.089Z,18.77
2018-03-25T13:32:31.259Z,26.83
2018-03-25T13:35:03.151Z,20.47
2018-03-25T13:37:35.286Z,17.30
2018-03-25T13:40:07.191Z,20.60
2018-03-25T13:42:39.419Z,18.47
2018-03-25T13:45:11.584Z,23.20
2018-03-25T13:47:43.460Z,17.63
2018-03-25T13:50:15.350Z,20.53
2018-03-25T13:52:47.235Z,24.83
2018-03-25T13:55:20.147Z,23.47
2018-03-25T13:57:52.022Z,25.37
2018-03-25T14:00:23.907Z,22.30
2018-03-25T14:02:55.824Z,22.17
2018-03-25T14:05:27.703Z,23.03
2018-03-25T14:07:59.584Z,23.00
2018-03-25T14:10:31.497Z,21.50
2018-03-25T14:13:04.138Z,21.00
2018-03-25T14:15:36.034Z,21.93
2018-03-25T14:18:08.684Z,22.50
2018-03-25T14:20:40.570Z,23.63
2018-03-25T14:23:13.223Z,19.20
2018-03-25T14:25:45.103Z,20.43
2018-03-25T14:28:17.750Z,20.67
2018-03-25T14:30:49.631Z,22.67
2018-03-25T14:33:21.515Z,21.07
2018-03-25T14:35:53.412Z,23.50
2018-03-25T14:38:25.661Z,24.37
2018-03-25T14:40:57.544Z,22.93
2018-03-25T14:43:29.428Z,23.53
2018-03-25T14:46:01.312Z,23.03
2018-03-25T14:48:34.005Z,23.37
2018-03-25T14:51:06.182Z,22.33
2018-03-25T14:53:38.057Z,24.03
2018-03-25T14:56:09.979Z,23.97
2018-03-25T14:58:42.619Z,23.43
2018-03-25T15:01:14.517Z,25.83
2018-03-25T15:03:47.163Z,22.67
2018-03-25T15:06:19.056Z,25.10
2018-03-25T15:08:51.696Z,25.80
2018-03-25T15:11:23.582Z,26.17
2018-03-25T15:13:55.464Z,26.90
2018-03-25T15:16:28.120Z,24.87
2018-03-25T15:18:59.992Z,23.90
2018-03-25T15:21:32.644Z,24.00
2018-03-25T15:24:04.751Z,24.67
2018-03-25T15:26:36.654Z,24.80
2018-03-25T15:29:08.780Z,24.30
2018-03-25T15:31:40.672Z,25.03
2018-03-25T15:34:12.563Z,24.47
2018-03-25T15:36:44.452Z,26.70
2018-03-25T15:39:17.102Z,26.47
2018-03-25T15:41:48.992Z,29.03
2018-03-25T15:44:20.900Z,33.70
2018-03-25T15:46:52.829Z,25.47
2018-03-25T15:49:24.719Z,24.17
2018-03-25T15:51:56.619Z,27.13
2018-03-25T15:54:29.264Z,29.97
2018-03-25T15:57:01.154Z,27.57
2018-03-25T15:59:33.800Z,28.30
2018-03-25T16:02:05.693Z,28.90
2018-03-25T16:04:38.332Z,28.80
2018-03-25T16:07:10.447Z,28.90
2018-03-25T16:09:43.100Z,30.97
2018-03-25T16:12:14.986Z,27.40
2018-03-25T16:14:47.628Z,30.10
2018-03-25T16:17:19.742Z,31.13
2018-03-25T16:19:52.010Z,27.73
2018-03-25T16:22:23.895Z,34.20
2018-03-25T16:24:55.815Z,32.20
2018-03-25T16:27:28.467Z,33.87
2018-03-25T16:30:00.347Z,31.27
2018-03-25T16:32:33.036Z,30.27
2018-03-25T16:35:06.043Z,31.47
2018-03-25T16:37:38.209Z,30.57
2018-03-25T16:40:10.076Z,32.27
2018-03-25T16:42:41.971Z,35.43
2018-03-25T16:45:13.840Z,29.87
2018-03-25T16:47:45.777Z,29.97
2018-03-25T16:50:17.637Z,30.80
2018-03-25T16:52:49.548Z,31.90
2018-03-25T16:55:22.198Z,31.20
2018-03-25T16:57:54.411Z,30.50
2018-03-25T17:00:26.283Z,33.67
2018-03-25T17:02:58.176Z,30.10
2018-03-25T17:05:30.063Z,28.87
2018-03-25T17:08:02.819Z,32.83
2018-03-25T17:10:34.694Z,30.37
2018-03-25T17:13:06.643Z,28.03
2018-03-25T17:15:38.518Z,32.47
2018-03-25T17:18:10.454Z,30.57
2018-03-25T17:20:42.588Z,33.03
2018-03-25T17:23:14.471Z,32.23
2018-03-25T17:25:46.350Z,32.83
2018-03-25T17:28:18.245Z,35.67
2018-03-25T17:30:50.929Z,30.30
2018-03-25T17:33:23.828Z,32.67
2018-03-25T17:35:55.711Z,31.60
2018-03-25T17:38:27.596Z,32.07
2018-03-25T17:40:59.500Z,30.90
2018-03-25T17:43:32.149Z,34.73
2018-03-25T17:46:04.039Z,32.73
2018-03-25T17:48:36.695Z,32.30
2018-03-25T17:51:09.604Z,32.80
2018-03-25T17:53:41.507Z,33.17
2018-03-25T17:56:13.379Z,37.23
2018-03-25T17:58:45.283Z,31.27
2018-03-25T18:01:17.182Z,33.07
2018-03-25T18:03:49.321Z,33.13
2018-03-25T18:06:21.195Z,33.50
2018-03-25T18:08:53.084Z,34.33
2018-03-25T18:11:24.968Z,36.63
2018-03-25T18:13:57.652Z,34.10
2018-03-25T18:16:30.555Z,38.07
2018-03-25T18:19:02.559Z,36.23
2018-03-25T18:21:34.436Z,34.40
2018-03-25T18:24:06.379Z,36.37
2018-03-25T18:26:38.579Z,40.37
2018-03-25T18:29:11.280Z,38.73
2018-03-25T18:31:43.191Z,37.17
2018-03-25T18:34:15.080Z,33.73
2018-03-25T18:36:47.556Z,40.27
2018-03-25T18:39:19.443Z,35.83
2018-03-25T18:41:51.610Z,36.60
2018-03-25T18:44:23.499Z,39.00
2018-03-25T18:46:55.383Z,36.97
2018-03-25T18:49:27.349Z,38.83
2018-03-25T18:51:59.536Z,39.03
2018-03-25T18:54:32.207Z,38.10
2018-03-25T18:57:04.079Z,38.27
2018-03-25T18:59:37.195Z,38.97
2018-03-25T19:02:09.087Z,43.00
2018-03-25T19:04:41.002Z,40.07
2018-03-25T19:07:12.932Z,41.63
2018-03-25T19:09:44.867Z,35.20
2018-03-25T19:12:16.834Z,39.73
2018-03-25T19:14:48.719Z,40.40
2018-03-25T19:17:20.688Z,39.73
2018-03-25T19:19:53.709Z,38.87
2018-03-25T19:22:25.599Z,41.47
2018-03-25T19:24:57.575Z,38.27
2018-03-25T19:27:29.424Z,39.57
2018-03-25T19:30:01.333Z,38.83
2018-03-25T19:32:33.978Z,38.73
2018-03-25T19:35:05.867Z,42.40
2018-03-25T19:37:38.531Z,36.83
2018-03-25T19:40:11.184Z,41.30
2018-03-25T19:42:43.140Z,40.20
2018-03-25T19:45:15.123Z,39.73
2018-03-25T19:47:47.224Z,42.37
2018-03-25T19:50:19.127Z,37.63
2018-03-25T19:52:51.105Z,40.80
2018-03-25T19:55:23.004Z,40.77
2018-03-25T19:57:55.046Z,41.10
2018-03-25T20:00:27.775Z,40.57
2018-03-25T20:02:59.759Z,41.23
2018-03-25T20:05:31.654Z,43.37
2018-03-25T20:08:04.676Z,39.30
2018-03-25T20:10:36.707Z,41.50
2018-03-25T20:13:08.596Z,42.63
2018-03-25T20:15:40.483Z,41.17
2018-03-25T20:18:12.359Z,39.77
2018-03-25T20:20:45.880Z,43.03
2018-03-25T20:23:18.530Z,39.73
2018-03-25T20:25:50.432Z,39.40
2018-03-25T20:28:23.075Z,42.17
2018-03-25T20:30:55.883Z,42.73
